Time,TemperatureF,DewpointF,PressureIn,WindDirection,WindDirectionDegrees,WindSpeedMPH,WindSpeedGustMPH,Humidity,HourlyPrecipIn,Conditions,Clouds,dailyrainin,SoftwareType,DateUTC
2013-01-23 00:03:00,10.0,-6.0,-100.00,WSW,245,1.0,4.0,47,0.00,,,-99.99,,2013-01-23 05:03:00,
2013-01-23 00:12:00,9.0,-5.0,-100.00,WSW,250,1.0,2.0,50,0.00,,,-99.99,,2013-01-23 05:12:00,
2013-01-23 00:22:00,9.0,-4.0,-100.00,SSE,160,1.0,2.0,53,0.00,,,-99.99,,2013-01-23 05:22:00,
2013-01-23 00:33:00,9.0,-3.0,-100.00,SSW,200,1.0,3.0,56,0.00,,,-99.99,,2013-01-23 05:33:00,
2013-01-23 00:43:00,8.0,-3.0,-100.00,SW,225,1.0,2.0,60,0.00,,,-99.99,,2013-01-23 05:43:00,
2013-01-23 00:52:00,8.0,-2.0,-100.00,SW,220,1.0,2.0,62,0.00,,,-99.99,,2013-01-23 05:52:00,
2013-01-23 01:02:00,9.0,-2.0,-100.00,West,280,3.0,5.0,60,0.00,,,-99.99,,2013-01-23 06:02:00,
2013-01-23 01:12:00,9.0,-3.0,-100.00,West,265,2.0,7.0,55,0.00,,,-99.99,,2013-01-23 06:12:00,
2013-01-23 01:22:00,9.0,-4.0,-100.00,SW,230,1.0,5.0,55,0.00,,,-99.99,,2013-01-23 06:22:00,
2013-01-23 01:32:00,9.0,-4.0,-100.00,SW,235,2.0,5.0,55,0.00,,,-99.99,,2013-01-23 06:32:00,
2013-01-23 01:43:00,9.0,-3.0,-100.00,SW,215,2.0,7.0,57,0.00,,,-99.99,,2013-01-23 06:43:00,
2013-01-23 01:52:00,9.0,-5.0,-100.00,West,260,3.0,9.0,51,0.00,,,-99.99,,2013-01-23 06:52:00,
2013-01-23 02:02:00,9.0,-7.0,-100.00,WSW,245,1.0,7.0,48,0.00,,,-99.99,,2013-01-23 07:02:00,
2013-01-23 02:12:00,9.0,-7.0,-100.00,WSW,245,1.0,6.0,49,0.00,,,-99.99,,2013-01-23 07:12:00,
2013-01-23 02:22:00,9.0,-7.0,-100.00,West,270,2.0,9.0,47,0.00,,,-99.99,,2013-01-23 07:22:00,
2013-01-23 02:33:00,9.0,-7.0,-100.00,WSW,240,1.0,7.0,47,0.00,,,-99.99,,2013-01-23 07:33:00,
2013-01-23 02:42:00,8.0,-7.0,-100.00,WSW,245,4.0,7.0,48,0.00,,,-99.99,,2013-01-23 07:42:00,
2013-01-23 02:52:00,9.0,-7.0,-100.00,WSW,245,2.0,7.0,48,0.00,,,-99.99,,2013-01-23 07:52:00,
2013-01-23 03:02:00,8.0,-7.0,-100.00,West,275,2.0,6.0,49,0.00,,,-99.99,,2013-01-23 08:02:00,
2013-01-23 03:13:00,8.0,-7.0,-100.00,SW,230,2.0,6.0,49,0.00,,,-99.99,,2013-01-23 08:13:00,
2013-01-23 03:22:00,8.0,-7.0,-100.00,South,180,1.0,3.0,50,0.00,,,-99.99,,2013-01-23 08:22:00,
2013-01-23 03:33:00,7.0,-6.0,-100.00,SSW,205,1.0,2.0,54,0.00,,,-99.99,,2013-01-23 08:33:00,
2013-01-23 03:42:00,7.0,-5.0,-100.00,WSW,240,1.0,2.0,56,0.00,,,-99.99,,2013-01-23 08:42:00,
2013-01-23 03:52:00,7.0,-6.0,-100.00,WSW,250,1.0,4.0,53,0.00,,,-99.99,,2013-01-23 08:52:00,
2013-01-23 04:03:00,7.0,-6.0,-100.00,SW,215,1.0,4.0,54,0.00,,,-99.99,,2013-01-23 09:03:00,
2013-01-23 04:12:00,6.0,-7.0,-100.00,WSW,240,1.0,2.0,53,0.00,,,-99.99,,2013-01-23 09:12:00,
2013-01-23 04:22:00,6.0,-7.0,-100.00,SSW,205,2.0,4.0,53,0.00,,,-99.99,,2013-01-23 09:22:00,
2013-01-23 04:32:00,6.0,-7.0,-100.00,WSW,250,2.0,6.0,53,0.00,,,-99.99,,2013-01-23 09:32:00,
2013-01-23 04:43:00,7.0,-9.0,-100.00,WSW,240,2.0,6.0,47,0.00,,,-99.99,,2013-01-23 09:43:00,
2013-01-23 04:53:00,7.0,-10.0,-100.00,WSW,240,3.0,7.0,44,0.00,,,-99.99,,2013-01-23 09:53:00,
2013-01-23 05:03:00,8.0,-10.0,-100.00,WSW,255,2.0,9.0,42,0.00,,,-99.99,,2013-01-23 10:03:00,
2013-01-23 05:12:00,8.0,-11.0,-100.00,West,280,6.0,10.0,41,0.00,,,-99.99,,2013-01-23 10:12:00,
2013-01-23 05:23:00,7.0,-12.0,-100.00,WNW,295,4.0,9.0,40,0.00,,,-99.99,,2013-01-23 10:23:00,
2013-01-23 05:33:00,8.0,-12.0,-100.00,WNW,285,6.0,11.0,39,0.00,,,-99.99,,2013-01-23 10:33:00,
2013-01-23 05:43:00,7.0,-12.0,-100.00,WNW,295,4.0,8.0,40,0.00,,,-99.99,,2013-01-23 10:43:00,
2013-01-23 05:52:00,7.0,-12.0,-100.00,West,270,4.0,10.0,40,0.00,,,-99.99,,2013-01-23 10:52:00,
2013-01-23 06:03:00,7.0,-11.0,-100.00,WNW,285,2.0,9.0,42,0.00,,,-99.99,,2013-01-23 11:03:00,
2013-01-23 06:12:00,6.0,-11.0,-100.00,NW,305,2.0,6.0,42,0.00,,,-99.99,,2013-01-23 11:12:00,
2013-01-23 06:23:00,7.0,-10.0,-100.00,NNW,340,2.0,5.0,45,0.00,,,-99.99,,2013-01-23 11:23:00,
2013-01-23 06:33:00,6.0,-10.0,-100.00,NNW,330,3.0,6.0,46,0.00,,,-99.99,,2013-01-23 11:33:00,
2013-01-23 06:43:00,6.0,-10.0,-100.00,NNW,335,3.0,6.0,45,0.00,,,-99.99,,2013-01-23 11:43:00,
2013-01-23 06:53:00,6.0,-13.0,-100.00,WNW,285,3.0,10.0,41,0.00,,,-99.99,,2013-01-23 11:53:00,
2013-01-23 07:03:00,6.0,-13.0,-100.00,WNW,285,3.0,6.0,40,0.00,,,-99.99,,2013-01-23 12:03:00,
2013-01-23 07:12:00,5.0,-13.0,-100.00,WNW,285,2.0,7.0,41,0.00,,,-99.99,,2013-01-23 12:12:00,
2013-01-23 07:22:00,5.0,-13.0,-100.00,South,185,2.0,5.0,41,0.00,,,-99.99,,2013-01-23 12:22:00,
2013-01-23 07:33:00,5.0,-13.0,-100.00,SW,225,1.0,5.0,42,0.00,,,-99.99,,2013-01-23 12:33:00,
2013-01-23 07:43:00,5.0,-14.0,-100.00,West,275,4.0,7.0,40,0.00,,,-99.99,,2013-01-23 12:43:00,
2013-01-23 07:53:00,6.0,-15.0,-100.00,WNW,285,6.0,11.0,36,0.00,,,-99.99,,2013-01-23 12:53:00,
2013-01-23 08:04:00,6.0,-12.0,-100.00,NNE,15,4.0,9.0,44,0.00,,,-99.99,,2013-01-23 13:04:00,
2013-01-23 08:13:00,5.0,-9.0,-100.00,NE,40,2.0,6.0,52,0.00,,,-99.99,,2013-01-23 13:13:00,
2013-01-23 08:23:00,5.0,-8.0,-100.00,NNE,30,2.0,8.0,55,0.00,,,-99.99,,2013-01-23 13:23:00,
2013-01-23 08:33:00,5.0,-8.0,-100.00,North,0,3.0,7.0,55,0.00,,,-99.99,,2013-01-23 13:33:00,
2013-01-23 08:42:00,5.0,-7.0,-100.00,WNW,290,1.0,6.0,57,0.00,,,-99.99,,2013-01-23 13:42:00,
2013-01-23 08:52:00,5.0,-8.0,-100.00,North,10,3.0,6.0,54,0.00,,,-99.99,,2013-01-23 13:52:00,
2013-01-23 09:03:00,6.0,-8.0,-100.00,NW,325,4.0,11.0,51,0.00,,,-99.99,,2013-01-23 14:03:00,
2013-01-23 09:12:00,6.0,-9.0,-100.00,NNW,330,2.0,7.0,47,0.00,,,-99.99,,2013-01-23 14:12:00,
2013-01-23 09:23:00,6.0,-10.0,-100.00,North,5,4.0,10.0,45,0.00,,,-99.99,,2013-01-23 14:23:00,
2013-01-23 09:33:00,7.0,-11.0,-100.00,West,280,5.0,11.0,41,0.00,,,-99.99,,2013-01-23 14:33:00,
2013-01-23 09:43:00,8.0,-10.0,-100.00,NNW,330,6.0,11.0,42,0.00,,,-99.99,,2013-01-23 14:43:00,
2013-01-23 09:53:00,8.0,-11.0,-100.00,NNW,330,7.0,11.0,41,0.00,,,-99.99,,2013-01-23 14:53:00,
2013-01-23 10:03:00,8.0,-14.0,-100.00,WNW,290,12.0,21.0,34,0.00,,,-99.99,,2013-01-23 15:03:00,
2013-01-23 10:12:00,8.0,-15.0,-100.00,West,265,9.0,17.0,32,0.00,,,-99.99,,2013-01-23 15:12:00,
2013-01-23 10:23:00,9.0,-14.0,-100.00,NNW,330,7.0,15.0,33,0.00,,,-99.99,,2013-01-23 15:23:00,
2013-01-23 10:33:00,10.0,-13.0,-100.00,WNW,285,3.0,14.0,33,0.00,,,-99.99,,2013-01-23 15:33:00,
2013-01-23 10:43:00,9.0,-15.0,-100.00,WNW,285,10.0,17.0,31,0.00,,,-99.99,,2013-01-23 15:43:00,
2013-01-23 10:53:00,10.0,-15.0,-100.00,NW,305,4.0,15.0,30,0.00,,,-99.99,,2013-01-23 15:53:00,
2013-01-23 11:03:00,10.0,-15.0,-100.00,WNW,285,7.0,21.0,30,0.00,,,-99.99,,2013-01-23 16:03:00,
2013-01-23 11:12:00,11.0,-13.0,-100.00,WNW,300,4.0,16.0,31,0.00,,,-99.99,,2013-01-23 16:12:00,
2013-01-23 11:23:00,11.0,-14.0,-100.00,NNW,335,4.0,13.0,31,0.00,,,-99.99,,2013-01-23 16:23:00,
2013-01-23 11:33:00,10.0,-16.0,-100.00,NNW,330,7.0,14.0,29,0.00,,,-99.99,,2013-01-23 16:33:00,
2013-01-23 11:42:00,9.0,-17.0,-100.00,NW,325,10.0,24.0,28,0.00,,,-99.99,,2013-01-23 16:42:00,
2013-01-23 11:52:00,10.0,-16.0,-100.00,NW,320,7.0,21.0,29,0.00,,,-99.99,,2013-01-23 16:52:00,
2013-01-23 12:03:00,10.0,-16.0,-100.00,NW,315,7.0,19.0,28,0.00,,,-99.99,,2013-01-23 17:03:00,
2013-01-23 12:12:00,11.0,-15.0,-100.00,WNW,285,7.0,17.0,28,0.00,,,-99.99,,2013-01-23 17:12:00,
2013-01-23 12:23:00,11.0,-15.0,-100.00,WNW,295,6.0,16.0,28,0.00,,,-99.99,,2013-01-23 17:23:00,
2013-01-23 12:33:00,11.0,-17.0,-100.00,West,280,7.0,18.0,25,0.00,,,-99.99,,2013-01-23 17:33:00,
2013-01-23 12:42:00,11.0,-16.0,-100.00,NW,310,7.0,17.0,27,0.00,,,-99.99,,2013-01-23 17:42:00,
2013-01-23 12:52:00,11.0,-16.0,-100.00,NNW,330,7.0,18.0,27,0.00,,,-99.99,,2013-01-23 17:52:00,
2013-01-23 13:03:00,12.0,-15.0,-100.00,NNW,335,6.0,18.0,28,0.00,,,-99.99,,2013-01-23 18:03:00,
2013-01-23 13:12:00,13.0,-13.0,-100.00,West,280,3.0,12.0,29,0.00,,,-99.99,,2013-01-23 18:12:00,
2013-01-23 13:23:00,12.0,-16.0,-100.00,NW,305,4.0,12.0,26,0.00,,,-99.99,,2013-01-23 18:23:00,
2013-01-23 13:33:00,13.0,-15.0,-100.00,NNW,345,4.0,12.0,26,0.00,,,-99.99,,2013-01-23 18:33:00,
2013-01-23 13:43:00,13.0,-14.0,-100.00,NW,325,6.0,11.0,27,0.00,,,-99.99,,2013-01-23 18:43:00,
2013-01-23 13:53:00,12.0,-18.0,-100.00,WSW,245,6.0,16.0,24,0.00,,,-99.99,,2013-01-23 18:53:00,
2013-01-23 14:03:00,12.0,-17.0,-100.00,West,270,9.0,17.0,24,0.00,,,-99.99,,2013-01-23 19:03:00,
2013-01-23 14:13:00,13.0,-16.0,-100.00,WNW,295,4.0,16.0,24,0.00,,,-99.99,,2013-01-23 19:13:00,
2013-01-23 14:23:00,13.0,-15.0,-100.00,NW,315,4.0,15.0,25,0.00,,,-99.99,,2013-01-23 19:23:00,
2013-01-23 14:33:00,13.0,-17.0,-100.00,WSW,255,9.0,16.0,23,0.00,,,-99.99,,2013-01-23 19:33:00,
2013-01-23 14:43:00,13.0,-16.0,-100.00,NW,310,6.0,15.0,25,0.00,,,-99.99,,2013-01-23 19:43:00,
2013-01-23 14:53:00,13.0,-16.0,-100.00,West,275,7.0,14.0,24,0.00,,,-99.99,,2013-01-23 19:53:00,
2013-01-23 15:03:00,12.0,-17.0,-100.00,WNW,285,6.0,17.0,25,0.00,,,-99.99,,2013-01-23 20:03:00,
2013-01-23 15:13:00,13.0,-16.0,-100.00,NNW,335,6.0,14.0,25,0.00,,,-99.99,,2013-01-23 20:13:00,
2013-01-23 15:23:00,13.0,-17.0,-100.00,NW,305,4.0,10.0,23,0.00,,,-99.99,,2013-01-23 20:23:00,
2013-01-23 15:33:00,12.0,-17.0,-100.00,NNW,330,7.0,14.0,25,0.00,,,-99.99,,2013-01-23 20:33:00,
2013-01-23 15:43:00,13.0,-16.0,-100.00,WNW,285,4.0,12.0,25,0.00,,,-99.99,,2013-01-23 20:43:00,
2013-01-23 15:53:00,12.0,-17.0,-100.00,NW,325,4.0,11.0,25,0.00,,,-99.99,,2013-01-23 20:53:00,
2013-01-23 16:03:00,12.0,-17.0,-100.00,North,5,7.0,13.0,25,0.00,,,-99.99,,2013-01-23 21:03:00,
2013-01-23 16:12:00,11.0,-16.0,-100.00,NW,325,4.0,12.0,27,0.00,,,-99.99,,2013-01-23 21:12:00,
2013-01-23 16:23:00,11.0,-15.0,-100.00,NNW,335,5.0,12.0,29,0.00,,,-99.99,,2013-01-23 21:23:00,
2013-01-23 16:33:00,10.0,-17.0,-100.00,NNW,340,7.0,11.0,27,0.00,,,-99.99,,2013-01-23 21:33:00,
2013-01-23 16:43:00,10.0,-17.0,-100.00,NNW,335,4.0,12.0,27,0.00,,,-99.99,,2013-01-23 21:43:00,
2013-01-23 16:52:00,10.0,-17.0,-100.00,WNW,300,4.0,12.0,28,0.00,,,-99.99,,2013-01-23 21:52:00,
2013-01-23 17:03:00,9.0,-17.0,-100.00,NNW,345,6.0,12.0,28,0.00,,,-99.99,,2013-01-23 22:03:00,
2013-01-23 17:12:00,9.0,-16.0,-100.00,NW,325,3.0,11.0,30,0.00,,,-99.99,,2013-01-23 22:12:00,
2013-01-23 17:23:00,9.0,-16.0,-100.00,North,350,4.0,9.0,29,0.00,,,-99.99,,2013-01-23 22:23:00,
2013-01-23 17:33:00,9.0,-16.0,-100.00,NNW,345,5.0,9.0,30,0.00,,,-99.99,,2013-01-23 22:33:00,
2013-01-23 17:42:00,9.0,-16.0,-100.00,NNW,335,4.0,9.0,30,0.00,,,-99.99,,2013-01-23 22:42:00,
2013-01-23 17:53:00,8.0,-16.0,-100.00,North,350,3.0,10.0,31,0.00,,,-99.99,,2013-01-23 22:53:00,
2013-01-23 18:03:00,8.0,-16.0,-100.00,NNW,340,5.0,8.0,30,0.00,,,-99.99,,2013-01-23 23:03:00,
2013-01-23 18:13:00,8.0,-16.0,-100.00,NNW,340,4.0,7.0,31,0.00,,,-99.99,,2013-01-23 23:13:00,
2013-01-23 18:23:00,8.0,-16.0,-100.00,NNW,335,3.0,7.0,31,0.00,,,-99.99,,2013-01-23 23:23:00,
2013-01-23 18:33:00,8.0,-16.0,-100.00,NNW,335,4.0,7.0,32,0.00,,,-99.99,,2013-01-23 23:33:00,
2013-01-23 18:43:00,8.0,-16.0,-100.00,North,350,3.0,7.0,32,0.00,,,-99.99,,2013-01-23 23:43:00,
2013-01-23 18:53:00,7.0,-15.0,-100.00,NE,35,1.0,4.0,34,0.00,,,-99.99,,2013-01-23 23:53:00,
2013-01-23 19:03:00,6.0,-13.0,-100.00,NW,325,2.0,3.0,40,0.00,,,-99.99,,2013-01-24 00:03:00,
2013-01-23 19:12:00,6.0,-14.0,-100.00,NNW,340,3.0,4.0,38,0.00,,,-99.99,,2013-01-24 00:12:00,
2013-01-23 19:22:00,6.0,-14.0,-100.00,NNW,330,2.0,6.0,37,0.00,,,-99.99,,2013-01-24 00:22:00,
2013-01-23 19:32:00,6.0,-14.0,-100.00,West,270,1.0,3.0,39,0.00,,,-99.99,,2013-01-24 00:32:00,
2013-01-23 19:42:00,5.0,-12.0,-100.00,South,185,1.0,2.0,44,0.00,,,-99.99,,2013-01-24 00:42:00,
2013-01-23 19:53:00,5.0,-13.0,-100.00,West,260,1.0,3.0,43,0.00,,,-99.99,,2013-01-24 00:53:00,
2013-01-23 20:03:00,4.0,-14.0,-100.00,WNW,300,1.0,2.0,42,0.00,,,-99.99,,2013-01-24 01:03:00,
2013-01-23 20:12:00,4.0,-13.0,-100.00,NW,305,1.0,4.0,43,0.00,,,-99.99,,2013-01-24 01:12:00,
2013-01-23 20:23:00,5.0,-14.0,-100.00,NW,325,2.0,3.0,39,0.00,,,-99.99,,2013-01-24 01:23:00,
2013-01-23 20:33:00,5.0,-14.0,-100.00,NNW,345,1.0,5.0,40,0.00,,,-99.99,,2013-01-24 01:33:00,
2013-01-23 20:42:00,5.0,-14.0,-100.00,North,350,2.0,4.0,39,0.00,,,-99.99,,2013-01-24 01:42:00,
2013-01-23 20:52:00,5.0,-14.0,-100.00,North,0,2.0,4.0,41,0.00,,,-99.99,,2013-01-24 01:52:00,
2013-01-23 21:02:00,5.0,-13.0,-100.00,NNW,340,1.0,6.0,42,0.00,,,-99.99,,2013-01-24 02:02:00,
2013-01-23 21:12:00,4.0,-13.0,-100.00,NW,305,1.0,3.0,44,0.00,,,-99.99,,2013-01-24 02:12:00,
2013-01-23 21:22:00,3.0,-13.0,-100.00,NW,325,1.0,2.0,46,0.00,,,-99.99,,2013-01-24 02:22:00,
2013-01-23 21:33:00,2.0,-11.0,-100.00,WNW,285,1.0,1.0,51,0.00,,,-99.99,,2013-01-24 02:33:00,
2013-01-23 21:42:00,2.0,-11.0,-100.00,WNW,285,1.0,1.0,51,0.00,,,-99.99,,2013-01-24 02:42:00,
2013-01-23 21:52:00,2.0,-11.0,-100.00,WNW,285,1.0,1.0,51,0.00,,,-99.99,,2013-01-24 02:52:00,
2013-01-23 22:02:00,0.0,-11.0,-100.00,SSW,195,1.0,1.0,57,0.00,,,-99.99,,2013-01-24 03:02:00,
2013-01-23 22:12:00,0.0,-10.0,-100.00,SW,230,1.0,2.0,62,0.00,,,-99.99,,2013-01-24 03:12:00,
2013-01-23 22:22:00,-1.0,-10.0,-100.00,SW,230,0.0,1.0,62,0.00,,,-99.99,,2013-01-24 03:22:00,
2013-01-23 22:33:00,-1.0,-11.0,-100.00,SW,220,1.0,1.0,62,0.00,,,-99.99,,2013-01-24 03:33:00,
2013-01-23 22:43:00,-1.0,-10.0,-100.00,SW,225,1.0,2.0,64,0.00,,,-99.99,,2013-01-24 03:43:00,
2013-01-23 22:52:00,-1.0,-10.0,-100.00,NNW,335,1.0,2.0,65,0.00,,,-99.99,,2013-01-24 03:52:00,
2013-01-23 23:02:00,-1.0,-10.0,-100.00,SW,225,1.0,2.0,64,0.00,,,-99.99,,2013-01-24 04:02:00,
2013-01-23 23:12:00,-1.0,-10.0,-100.00,NNW,330,1.0,1.0,66,0.00,,,-99.99,,2013-01-24 04:12:00,
2013-01-23 23:22:00,-1.0,-10.0,-100.00,SW,225,1.0,2.0,63,0.00,,,-99.99,,2013-01-24 04:22:00,
2013-01-23 23:33:00,-2.0,-11.0,-100.00,SSW,195,1.0,2.0,63,0.00,,,-99.99,,2013-01-24 04:33:00,
2013-01-23 23:42:00,-2.0,-11.0,-100.00,NNW,345,0.0,1.0,64,0.00,,,-99.99,,2013-01-24 04:42:00,
2013-01-23 23:52:00,-2.0,-11.0,-100.00,SSW,195,0.0,1.0,66,0.00,,,-99.99,,2013-01-24 04:52:00,